sensor_id;sensor_type;location;lat;lon;timestamp;temperature;humidity
31819;DHT22;18384;48.860;9.188;2023-12-20T00:01:51;7.10;99.90
31819;DHT22;18384;48.860;9.188;2023-12-20T00:04:17;7.20;99.90
31819;DHT22;18384;48.860;9.188;2023-12-20T00:06:43;7.20;99.90
31819;DHT22;18384;48.860;9.188;2023-12-20T00:09:09;7.20;99.90
31819;DHT22;18384;48.860;9.188;2023-12-20T00:11:35;7.20;99.90
31819;DHT22;18384;48.860;9.188;2023-12-20T00:14:01;7.30;99.90
31819;DHT22;18384;48.860;9.188;2023-12-20T00:16:27;7.40;99.90
31819;DHT22;18384;48.860;9.188;2023-12-20T00:18:53;7.30;99.90
31819;DHT22;18384;48.860;9.188;2023-12-20T00:21:19;7.40;99.90
31819;DHT22;18384;48.860;9.188;2023-12-20T00:23:46;7.40;99.90
31819;DHT22;18384;48.860;9.188;2023-12-20T00:26:12;7.40;99.90
31819;DHT22;18384;48.860;9.188;2023-12-20T00:28:38;7.40;99.90
31819;DHT22;18384;48.860;9.188;2023-12-20T00:31:04;7.40;99.90
31819;DHT22;18384;48.860;9.188;2023-12-20T00:33:30;7.40;99.90
31819;DHT22;18384;48.860;9.188;2023-12-20T00:35:57;7.50;99.90
31819;DHT22;18384;48.860;9.188;2023-12-20T00:38:23;7.50;99.90
31819;DHT22;18384;48.860;9.188;2023-12-20T00:40:49;7.50;99.90
31819;DHT22;18384;48.860;9.188;2023-12-20T00:43:16;7.40;99.90
31819;DHT22;18384;48.860;9.188;2023-12-20T00:45:42;7.40;99.90
31819;DHT22;18384;48.860;9.188;2023-12-20T00:48:08;7.40;99.90
31819;DHT22;18384;48.860;9.188;2023-12-20T00:50:34;7.40;99.90
31819;DHT22;18384;48.860;9.188;2023-12-20T00:53:00;7.40;99.90
31819;DHT22;18384;48.860;9.188;2023-12-20T00:55:26;5.90;99.90
31819;DHT22;18384;48.860;9.188;2023-12-20T00:57:52;7.40;99.90
31819;DHT22;18384;48.860;9.188;2023-12-20T01:00:19;7.40;99.90
31819;DHT22;18384;48.860;9.188;2023-12-20T01:02:46;7.40;99.90
31819;DHT22;18384;48.860;9.188;2023-12-20T01:05:15;7.40;99.90
31819;DHT22;18384;48.860;9.188;2023-12-20T01:07:41;7.40;99.90
31819;DHT22;18384;48.860;9.188;2023-12-20T01:10:07;7.40;99.90
31819;DHT22;18384;48.860;9.188;2023-12-20T01:12:35;7.40;99.90
31819;DHT22;18384;48.860;9.188;2023-12-20T01:15:02;7.40;99.90
31819;DHT22;18384;48.860;9.188;2023-12-20T01:17:28;7.30;99.90
31819;DHT22;18384;48.860;9.188;2023-12-20T01:19:54;7.30;99.90
31819;DHT22;18384;48.860;9.188;2023-12-20T01:22:20;7.40;99.90
31819;DHT22;18384;48.860;9.188;2023-12-20T01:24:46;7.30;99.90
31819;DHT22;18384;48.860;9.188;2023-12-20T01:27:12;7.30;99.90
31819;DHT22;18384;48.860;9.188;2023-12-20T01:29:38;7.30;99.90
31819;DHT22;18384;48.860;9.188;2023-12-20T01:32:05;7.30;99.90
31819;DHT22;18384;48.860;9.188;2023-12-20T01:34:31;7.30;99.90
31819;DHT22;18384;48.860;9.188;2023-12-20T01:36:57;7.30;99.90
31819;DHT22;18384;48.860;9.188;2023-12-20T01:39:23;7.30;99.90
31819;DHT22;18384;48.860;9.188;2023-12-20T01:41:50;7.30;99.90
31819;DHT22;18384;48.860;9.188;2023-12-20T01:44:16;7.20;99.90
31819;DHT22;18384;48.860;9.188;2023-12-20T01:46:42;7.20;99.90
31819;DHT22;18384;48.860;9.188;2023-12-20T01:49:08;7.30;99.90
31819;DHT22;18384;48.860;9.188;2023-12-20T01:51:35;7.30;99.90
31819;DHT22;18384;48.860;9.188;2023-12-20T01:54:02;7.30;99.90
31819;DHT22;18384;48.860;9.188;2023-12-20T01:56:29;7.30;99.90
31819;DHT22;18384;48.860;9.188;2023-12-20T01:58:56;7.20;99.90
31819;DHT22;18384;48.860;9.188;2023-12-20T02:01:23;7.30;99.90
31819;DHT22;18384;48.860;9.188;2023-12-20T02:03:51;7.30;99.90
31819;DHT22;18384;48.860;9.188;2023-12-20T02:06:18;7.30;99.90
31819;DHT22;18384;48.860;9.188;2023-12-20T02:08:44;7.30;99.90
31819;DHT22;18384;48.860;9.188;2023-12-20T02:11:10;7.30;99.90
31819;DHT22;18384;48.860;9.188;2023-12-20T02:13:36;7.30;99.90
31819;DHT22;18384;48.860;9.188;2023-12-20T02:16:03;7.30;99.90
31819;DHT22;18384;48.860;9.188;2023-12-20T02:18:29;7.30;99.90
31819;DHT22;18384;48.860;9.188;2023-12-20T02:20:55;7.30;99.90
31819;DHT22;18384;48.860;9.188;2023-12-20T02:23:22;7.30;99.90
31819;DHT22;18384;48.860;9.188;2023-12-20T02:25:48;7.30;99.90
31819;DHT22;18384;48.860;9.188;2023-12-20T02:28:14;7.20;99.90
31819;DHT22;18384;48.860;9.188;2023-12-20T02:30:40;7.30;99.90
31819;DHT22;18384;48.860;9.188;2023-12-20T02:33:08;7.30;99.90
31819;DHT22;18384;48.860;9.188;2023-12-20T02:35:37;7.30;99.90
31819;DHT22;18384;48.860;9.188;2023-12-20T02:38:03;7.20;99.90
31819;DHT22;18384;48.860;9.188;2023-12-20T02:40:29;7.20;99.90
31819;DHT22;18384;48.860;9.188;2023-12-20T02:42:55;7.30;99.90
31819;DHT22;18384;48.860;9.188;2023-12-20T02:45:21;7.20;99.90
31819;DHT22;18384;48.860;9.188;2023-12-20T02:47:47;7.30;99.90
31819;DHT22;18384;48.860;9.188;2023-12-20T02:50:14;7.20;99.90
31819;DHT22;18384;48.860;9.188;2023-12-20T02:52:45;7.20;99.90
31819;DHT22;18384;48.860;9.188;2023-12-20T02:55:11;7.20;99.90
31819;DHT22;18384;48.860;9.188;2023-12-20T02:57:37;7.10;99.90
31819;DHT22;18384;48.860;9.188;2023-12-20T03:00:08;7.20;99.90
31819;DHT22;18384;48.860;9.188;2023-12-20T03:02:35;7.10;99.90
31819;DHT22;18384;48.860;9.188;2023-12-20T03:05:01;7.20;99.90
31819;DHT22;18384;48.860;9.188;2023-12-20T03:07:27;7.10;99.90
31819;DHT22;18384;48.860;9.188;2023-12-20T03:09:53;7.10;99.90
31819;DHT22;18384;48.860;9.188;2023-12-20T03:12:19;7.10;99.90
31819;DHT22;18384;48.860;9.188;2023-12-20T03:14:45;7.10;99.90
31819;DHT22;18384;48.860;9.188;2023-12-20T03:17:14;7.10;99.90
31819;DHT22;18384;48.860;9.188;2023-12-20T03:19:40;7.10;99.90
31819;DHT22;18384;48.860;9.188;2023-12-20T03:22:06;7.10;99.90
31819;DHT22;18384;48.860;9.188;2023-12-20T03:24:32;7.20;99.90
31819;DHT22;18384;48.860;9.188;2023-12-20T03:26:58;7.10;99.90
31819;DHT22;18384;48.860;9.188;2023-12-20T03:29:24;7.10;99.90
31819;DHT22;18384;48.860;9.188;2023-12-20T03:31:50;7.10;99.90
31819;DHT22;18384;48.860;9.188;2023-12-20T03:34:16;7.00;99.90
31819;DHT22;18384;48.860;9.188;2023-12-20T03:36:42;7.00;99.90
31819;DHT22;18384;48.860;9.188;2023-12-20T03:39:13;7.00;99.90
31819;DHT22;18384;48.860;9.188;2023-12-20T03:41:39;7.00;99.90
31819;DHT22;18384;48.860;9.188;2023-12-20T03:44:05;7.00;99.90
31819;DHT22;18384;48.860;9.188;2023-12-20T03:46:31;6.90;99.90
31819;DHT22;18384;48.860;9.188;2023-12-20T03:48:57;6.90;99.90
31819;DHT22;18384;48.860;9.188;2023-12-20T03:51:23;6.90;99.90
31819;DHT22;18384;48.860;9.188;2023-12-20T03:53:50;7.00;99.90
31819;DHT22;18384;48.860;9.188;2023-12-20T03:56:16;6.90;99.90
31819;DHT22;18384;48.860;9.188;2023-12-20T03:58:42;6.90;99.90
31819;DHT22;18384;48.860;9.188;2023-12-20T04:01:11;6.90;99.90
31819;DHT22;18384;48.860;9.188;2023-12-20T04:03:38;6.90;99.90
31819;DHT22;18384;48.860;9.188;2023-12-20T04:06:05;6.90;99.90
31819;DHT22;18384;48.860;9.188;2023-12-20T04:08:31;6.90;99.90
31819;DHT22;18384;48.860;9.188;2023-12-20T04:10:58;6.90;99.90
31819;DHT22;18384;48.860;9.188;2023-12-20T04:13:24;6.90;99.90
31819;DHT22;18384;48.860;9.188;2023-12-20T04:15:50;7.00;99.90
31819;DHT22;18384;48.860;9.188;2023-12-20T04:18:17;6.90;99.90
31819;DHT22;18384;48.860;9.188;2023-12-20T04:20:43;7.00;99.90
31819;DHT22;18384;48.860;9.188;2023-12-20T04:23:10;7.00;99.90
31819;DHT22;18384;48.860;9.188;2023-12-20T04:25:36;7.00;99.90
31819;DHT22;18384;48.860;9.188;2023-12-20T04:28:02;6.90;99.90
31819;DHT22;18384;48.860;9.188;2023-12-20T04:30:28;6.90;99.90
31819;DHT22;18384;48.860;9.188;2023-12-20T04:32:54;6.90;99.90
31819;DHT22;18384;48.860;9.188;2023-12-20T04:35:20;6.90;99.90
31819;DHT22;18384;48.860;9.188;2023-12-20T04:37:47;6.90;99.90
31819;DHT22;18384;48.860;9.188;2023-12-20T04:40:15;6.90;99.90
31819;DHT22;18384;48.860;9.188;2023-12-20T04:42:41;6.90;99.90
31819;DHT22;18384;48.860;9.188;2023-12-20T04:45:07;6.90;99.90
31819;DHT22;18384;48.860;9.188;2023-12-20T04:47:33;6.90;99.90
31819;DHT22;18384;48.860;9.188;2023-12-20T04:49:59;6.90;99.90
31819;DHT22;18384;48.860;9.188;2023-12-20T04:52:26;6.90;99.90
31819;DHT22;18384;48.860;9.188;2023-12-20T04:54:52;6.90;99.90
31819;DHT22;18384;48.860;9.188;2023-12-20T04:57:18;6.90;99.90
31819;DHT22;18384;48.860;9.188;2023-12-20T04:59:44;6.90;99.90
31819;DHT22;18384;48.860;9.188;2023-12-20T05:02:10;6.90;99.90
31819;DHT22;18384;48.860;9.188;2023-12-20T05:04:37;6.90;99.90
31819;DHT22;18384;48.860;9.188;2023-12-20T05:07:03;7.00;99.90
31819;DHT22;18384;48.860;9.188;2023-12-20T05:09:30;7.00;99.90
31819;DHT22;18384;48.860;9.188;2023-12-20T05:11:56;7.00;99.90
31819;DHT22;18384;48.860;9.188;2023-12-20T05:14:22;6.90;99.90
31819;DHT22;18384;48.860;9.188;2023-12-20T05:16:49;7.00;99.90
31819;DHT22;18384;48.860;9.188;2023-12-20T05:19:15;6.90;99.90
31819;DHT22;18384;48.860;9.188;2023-12-20T05:21:41;7.00;99.90
31819;DHT22;18384;48.860;9.188;2023-12-20T05:24:07;6.90;99.90
31819;DHT22;18384;48.860;9.188;2023-12-20T05:26:33;7.00;99.90
31819;DHT22;18384;48.860;9.188;2023-12-20T05:28:59;7.00;99.90
31819;DHT22;18384;48.860;9.188;2023-12-20T05:31:25;7.00;99.90
31819;DHT22;18384;48.860;9.188;2023-12-20T05:33:51;6.90;99.90
31819;DHT22;18384;48.860;9.188;2023-12-20T05:36:18;7.10;99.90
31819;DHT22;18384;48.860;9.188;2023-12-20T05:38:44;7.00;99.90
31819;DHT22;18384;48.860;9.188;2023-12-20T05:41:10;7.00;99.90
31819;DHT22;18384;48.860;9.188;2023-12-20T05:43:37;7.90;99.90
31819;DHT22;18384;48.860;9.188;2023-12-20T05:46:03;7.00;99.90
31819;DHT22;18384;48.860;9.188;2023-12-20T05:48:29;7.00;99.90
31819;DHT22;18384;48.860;9.188;2023-12-20T05:50:55;7.00;99.90
31819;DHT22;18384;48.860;9.188;2023-12-20T05:53:21;7.00;99.90
31819;DHT22;18384;48.860;9.188;2023-12-20T05:55:47;7.10;99.90
31819;DHT22;18384;48.860;9.188;2023-12-20T05:58:13;7.00;99.90
31819;DHT22;18384;48.860;9.188;2023-12-20T06:00:39;7.00;99.90
31819;DHT22;18384;48.860;9.188;2023-12-20T06:03:05;7.10;99.90
31819;DHT22;18384;48.860;9.188;2023-12-20T06:05:32;7.10;99.90
31819;DHT22;18384;48.860;9.188;2023-12-20T06:07:58;7.10;99.90
31819;DHT22;18384;48.860;9.188;2023-12-20T06:10:27;7.20;99.90
31819;DHT22;18384;48.860;9.188;2023-12-20T06:12:53;7.20;99.90
31819;DHT22;18384;48.860;9.188;2023-12-20T06:15:20;7.20;99.90
31819;DHT22;18384;48.860;9.188;2023-12-20T06:17:46;7.20;99.90
31819;DHT22;18384;48.860;9.188;2023-12-20T06:20:12;7.30;99.90
31819;DHT22;18384;48.860;9.188;2023-12-20T06:22:38;7.30;99.90
31819;DHT22;18384;48.860;9.188;2023-12-20T06:25:05;7.20;99.90
31819;DHT22;18384;48.860;9.188;2023-12-20T06:27:32;7.20;99.90
31819;DHT22;18384;48.860;9.188;2023-12-20T06:29:58;7.20;99.90
31819;DHT22;18384;48.860;9.188;2023-12-20T06:32:24;7.20;99.90
31819;DHT22;18384;48.860;9.188;2023-12-20T06:34:50;7.20;99.90
31819;DHT22;18384;48.860;9.188;2023-12-20T06:37:17;7.20;99.90
31819;DHT22;18384;48.860;9.188;2023-12-20T06:39:43;7.20;99.90
31819;DHT22;18384;48.860;9.188;2023-12-20T06:42:09;7.20;99.90
31819;DHT22;18384;48.860;9.188;2023-12-20T06:44:35;7.20;99.90
31819;DHT22;18384;48.860;9.188;2023-12-20T06:47:02;7.20;99.90
31819;DHT22;18384;48.860;9.188;2023-12-20T06:49:28;7.30;99.90
31819;DHT22;18384;48.860;9.188;2023-12-20T06:51:54;7.20;99.90
31819;DHT22;18384;48.860;9.188;2023-12-20T06:54:20;7.20;99.90
31819;DHT22;18384;48.860;9.188;2023-12-20T06:56:46;7.20;99.90
31819;DHT22;18384;48.860;9.188;2023-12-20T06:59:13;7.20;99.90
31819;DHT22;18384;48.860;9.188;2023-12-20T07:01:39;7.20;99.90
31819;DHT22;18384;48.860;9.188;2023-12-20T07:04:05;7.20;99.90
31819;DHT22;18384;48.860;9.188;2023-12-20T07:06:31;7.30;99.90
31819;DHT22;18384;48.860;9.188;2023-12-20T07:08:57;7.20;99.90
31819;DHT22;18384;48.860;9.188;2023-12-20T07:11:23;7.20;99.90
31819;DHT22;18384;48.860;9.188;2023-12-20T07:13:49;7.20;99.90
31819;DHT22;18384;48.860;9.188;2023-12-20T07:16:15;7.20;99.90
31819;DHT22;18384;48.860;9.188;2023-12-20T07:18:42;7.20;99.90
31819;DHT22;18384;48.860;9.188;2023-12-20T07:21:08;7.20;99.90
31819;DHT22;18384;48.860;9.188;2023-12-20T07:23:34;7.10;99.90
31819;DHT22;18384;48.860;9.188;2023-12-20T07:26:00;7.10;99.90
31819;DHT22;18384;48.860;9.188;2023-12-20T07:28:26;7.00;99.90
31819;DHT22;18384;48.860;9.188;2023-12-20T07:30:52;7.00;99.90
31819;DHT22;18384;48.860;9.188;2023-12-20T07:33:18;7.00;99.90
31819;DHT22;18384;48.860;9.188;2023-12-20T07:35:44;7.10;99.90
31819;DHT22;18384;48.860;9.188;2023-12-20T07:38:10;7.10;99.90
31819;DHT22;18384;48.860;9.188;2023-12-20T07:40:37;7.00;99.90
31819;DHT22;18384;48.860;9.188;2023-12-20T07:43:04;7.00;99.90
31819;DHT22;18384;48.860;9.188;2023-12-20T07:45:30;7.00;99.90
31819;DHT22;18384;48.860;9.188;2023-12-20T07:47:56;7.00;99.90
31819;DHT22;18384;48.860;9.188;2023-12-20T07:50:22;6.90;99.90
31819;DHT22;18384;48.860;9.188;2023-12-20T07:52:48;6.90;99.90
31819;DHT22;18384;48.860;9.188;2023-12-20T07:55:15;6.90;99.90
31819;DHT22;18384;48.860;9.188;2023-12-20T07:57:41;6.80;99.90
31819;DHT22;18384;48.860;9.188;2023-12-20T08:00:07;6.80;99.90
31819;DHT22;18384;48.860;9.188;2023-12-20T08:02:34;6.70;99.90
31819;DHT22;18384;48.860;9.188;2023-12-20T08:05:00;6.60;99.90
31819;DHT22;18384;48.860;9.188;2023-12-20T08:07:26;6.60;99.90
31819;DHT22;18384;48.860;9.188;2023-12-20T08:09:52;6.60;99.90
31819;DHT22;18384;48.860;9.188;2023-12-20T08:12:20;6.50;99.90
31819;DHT22;18384;48.860;9.188;2023-12-20T08:14:46;6.50;99.90
31819;DHT22;18384;48.860;9.188;2023-12-20T08:17:12;6.40;99.90
31819;DHT22;18384;48.860;9.188;2023-12-20T08:19:38;6.40;99.90
31819;DHT22;18384;48.860;9.188;2023-12-20T08:22:04;6.40;99.90
31819;DHT22;18384;48.860;9.188;2023-12-20T08:24:30;6.40;99.90
31819;DHT22;18384;48.860;9.188;2023-12-20T08:26:56;6.40;99.90
31819;DHT22;18384;48.860;9.188;2023-12-20T08:29:23;6.40;99.90
31819;DHT22;18384;48.860;9.188;2023-12-20T08:31:52;6.40;99.90
31819;DHT22;18384;48.860;9.188;2023-12-20T08:34:19;6.40;99.90
31819;DHT22;18384;48.860;9.188;2023-12-20T08:36:45;6.40;99.90
31819;DHT22;18384;48.860;9.188;2023-12-20T08:39:11;6.40;99.90
31819;DHT22;18384;48.860;9.188;2023-12-20T08:41:38;6.40;99.90
31819;DHT22;18384;48.860;9.188;2023-12-20T08:44:04;6.50;99.90
31819;DHT22;18384;48.860;9.188;2023-12-20T08:46:30;6.50;99.90
31819;DHT22;18384;48.860;9.188;2023-12-20T08:48:56;6.50;99.90
31819;DHT22;18384;48.860;9.188;2023-12-20T08:51:22;6.50;99.90
31819;DHT22;18384;48.860;9.188;2023-12-20T08:53:51;6.50;99.90
31819;DHT22;18384;48.860;9.188;2023-12-20T08:56:17;6.60;99.90
31819;DHT22;18384;48.860;9.188;2023-12-20T08:58:44;6.60;99.90
31819;DHT22;18384;48.860;9.188;2023-12-20T09:01:11;6.60;99.90
31819;DHT22;18384;48.860;9.188;2023-12-20T09:03:37;6.70;99.90
31819;DHT22;18384;48.860;9.188;2023-12-20T09:06:03;6.60;99.90
31819;DHT22;18384;48.860;9.188;2023-12-20T09:08:29;6.70;99.90
31819;DHT22;18384;48.860;9.188;2023-12-20T09:10:56;6.60;99.90
31819;DHT22;18384;48.860;9.188;2023-12-20T09:13:22;6.70;99.90
31819;DHT22;18384;48.860;9.188;2023-12-20T09:15:55;6.70;99.90
31819;DHT22;18384;48.860;9.188;2023-12-20T09:18:21;6.70;99.90
31819;DHT22;18384;48.860;9.188;2023-12-20T09:20:47;6.70;99.90
31819;DHT22;18384;48.860;9.188;2023-12-20T09:23:13;6.70;99.90
31819;DHT22;18384;48.860;9.188;2023-12-20T09:25:39;6.80;99.90
31819;DHT22;18384;48.860;9.188;2023-12-20T09:28:06;6.80;99.90
31819;DHT22;18384;48.860;9.188;2023-12-20T09:30:32;6.80;99.90
31819;DHT22;18384;48.860;9.188;2023-12-20T09:32:58;6.90;99.90
31819;DHT22;18384;48.860;9.188;2023-12-20T09:35:24;6.90;99.90
31819;DHT22;18384;48.860;9.188;2023-12-20T09:37:51;7.00;99.90
31819;DHT22;18384;48.860;9.188;2023-12-20T09:40:20;7.00;99.90
31819;DHT22;18384;48.860;9.188;2023-12-20T09:42:55;6.90;99.90
31819;DHT22;18384;48.860;9.188;2023-12-20T09:45:23;6.90;99.90
31819;DHT22;18384;48.860;9.188;2023-12-20T09:47:53;7.00;99.90
31819;DHT22;18384;48.860;9.188;2023-12-20T09:50:21;7.00;99.90
31819;DHT22;18384;48.860;9.188;2023-12-20T09:52:52;7.10;99.90
31819;DHT22;18384;48.860;9.188;2023-12-20T09:55:19;7.10;99.90
31819;DHT22;18384;48.860;9.188;2023-12-20T09:57:46;7.10;99.90
31819;DHT22;18384;48.860;9.188;2023-12-20T10:00:14;7.10;99.50
31819;DHT22;18384;48.860;9.188;2023-12-20T10:03:14;7.10;99.10
31819;DHT22;18384;48.860;9.188;2023-12-20T10:05:43;7.20;98.80
31819;DHT22;18384;48.860;9.188;2023-12-20T10:08:10;7.10;98.50
31819;DHT22;18384;48.860;9.188;2023-12-20T10:10:36;7.20;99.30
31819;DHT22;18384;48.860;9.188;2023-12-20T10:13:07;7.20;99.40
31819;DHT22;18384;48.860;9.188;2023-12-20T10:15:36;7.30;99.20
31819;DHT22;18384;48.860;9.188;2023-12-20T10:18:03;7.30;98.80
31819;DHT22;18384;48.860;9.188;2023-12-20T10:20:31;7.30;98.30
31819;DHT22;18384;48.860;9.188;2023-12-20T10:22:58;7.30;97.80
31819;DHT22;18384;48.860;9.188;2023-12-20T10:25:25;7.30;98.10
31819;DHT22;18384;48.860;9.188;2023-12-20T10:28:09;7.30;98.50
31819;DHT22;18384;48.860;9.188;2023-12-20T10:30:40;7.40;98.30
31819;DHT22;18384;48.860;9.188;2023-12-20T10:33:07;7.40;98.00
31819;DHT22;18384;48.860;9.188;2023-12-20T10:35:37;7.40;98.10
31819;DHT22;18384;48.860;9.188;2023-12-20T10:38:05;7.40;98.30
31819;DHT22;18384;48.860;9.188;2023-12-20T10:40:35;7.30;97.90
31819;DHT22;18384;48.860;9.188;2023-12-20T10:43:04;7.40;97.90
31819;DHT22;18384;48.860;9.188;2023-12-20T10:45:31;7.40;98.50
31819;DHT22;18384;48.860;9.188;2023-12-20T10:47:58;7.50;97.50
31819;DHT22;18384;48.860;9.188;2023-12-20T10:50:27;7.70;98.00
31819;DHT22;18384;48.860;9.188;2023-12-20T10:52:59;7.80;97.20
31819;DHT22;18384;48.860;9.188;2023-12-20T10:55:26;7.80;97.10
31819;DHT22;18384;48.860;9.188;2023-12-20T10:57:52;7.90;97.50
31819;DHT22;18384;48.860;9.188;2023-12-20T11:00:40;8.00;98.00
31819;DHT22;18384;48.860;9.188;2023-12-20T11:03:09;8.10;97.00
31819;DHT22;18384;48.860;9.188;2023-12-20T11:05:46;8.30;95.90
31819;DHT22;18384;48.860;9.188;2023-12-20T11:08:58;8.40;95.80
31819;DHT22;18384;48.860;9.188;2023-12-20T11:11:56;8.50;95.00
31819;DHT22;18384;48.860;9.188;2023-12-20T11:14:51;8.50;95.60
31819;DHT22;18384;48.860;9.188;2023-12-20T11:17:19;8.60;94.40
31819;DHT22;18384;48.860;9.188;2023-12-20T11:24:04;8.40;95.00
31819;DHT22;18384;48.860;9.188;2023-12-20T11:26:31;8.40;95.40
31819;DHT22;18384;48.860;9.188;2023-12-20T11:29:32;8.40;95.70
31819;DHT22;18384;48.860;9.188;2023-12-20T11:32:03;8.30;95.00
31819;DHT22;18384;48.860;9.188;2023-12-20T11:34:35;8.30;96.00
31819;DHT22;18384;48.860;9.188;2023-12-20T11:37:03;8.20;96.00
31819;DHT22;18384;48.860;9.188;2023-12-20T11:39:30;8.20;96.10
31819;DHT22;18384;48.860;9.188;2023-12-20T11:41:57;8.30;95.50
31819;DHT22;18384;48.860;9.188;2023-12-20T11:44:30;8.20;95.90
31819;DHT22;18384;48.860;9.188;2023-12-20T11:46:57;8.10;95.80
31819;DHT22;18384;48.860;9.188;2023-12-20T11:49:24;8.00;95.50
31819;DHT22;18384;48.860;9.188;2023-12-20T11:51:50;8.00;95.70
31819;DHT22;18384;48.860;9.188;2023-12-20T11:54:16;7.90;95.90
31819;DHT22;18384;48.860;9.188;2023-12-20T11:56:43;7.80;96.40
31819;DHT22;18384;48.860;9.188;2023-12-20T11:59:09;7.80;95.90
31819;DHT22;18384;48.860;9.188;2023-12-20T12:01:37;7.70;95.10
31819;DHT22;18384;48.860;9.188;2023-12-20T12:04:04;7.80;95.60
31819;DHT22;18384;48.860;9.188;2023-12-20T12:06:30;7.80;95.10
31819;DHT22;18384;48.860;9.188;2023-12-20T12:08:56;7.80;95.40
31819;DHT22;18384;48.860;9.188;2023-12-20T12:11:23;7.80;95.40
31819;DHT22;18384;48.860;9.188;2023-12-20T12:13:49;7.90;95.30
31819;DHT22;18384;48.860;9.188;2023-12-20T12:16:19;8.00;95.80
31819;DHT22;18384;48.860;9.188;2023-12-20T12:18:46;8.00;95.20
31819;DHT22;18384;48.860;9.188;2023-12-20T12:21:21;8.10;95.50
31819;DHT22;18384;48.860;9.188;2023-12-20T12:23:47;8.20;95.40
31819;DHT22;18384;48.860;9.188;2023-12-20T12:26:13;8.10;95.20
31819;DHT22;18384;48.860;9.188;2023-12-20T12:28:40;8.20;94.80
31819;DHT22;18384;48.860;9.188;2023-12-20T12:31:07;8.20;95.00
31819;DHT22;18384;48.860;9.188;2023-12-20T12:33:33;8.30;94.80
31819;DHT22;18384;48.860;9.188;2023-12-20T12:36:01;8.30;94.40
31819;DHT22;18384;48.860;9.188;2023-12-20T12:38:27;8.30;94.90
31819;DHT22;18384;48.860;9.188;2023-12-20T12:40:55;8.30;94.40
31819;DHT22;18384;48.860;9.188;2023-12-20T12:43:21;8.40;95.20
31819;DHT22;18384;48.860;9.188;2023-12-20T12:45:48;8.50;94.40
31819;DHT22;18384;48.860;9.188;2023-12-20T12:48:15;8.50;94.80
31819;DHT22;18384;48.860;9.188;2023-12-20T12:50:41;8.40;94.10
31819;DHT22;18384;48.860;9.188;2023-12-20T12:53:07;8.40;94.60
31819;DHT22;18384;48.860;9.188;2023-12-20T12:55:35;8.30;94.90
31819;DHT22;18384;48.860;9.188;2023-12-20T12:58:02;8.30;94.70
31819;DHT22;18384;48.860;9.188;2023-12-20T13:00:28;8.40;94.60
31819;DHT22;18384;48.860;9.188;2023-12-20T13:02:54;8.30;94.40
31819;DHT22;18384;48.860;9.188;2023-12-20T13:05:20;8.20;94.70
31819;DHT22;18384;48.860;9.188;2023-12-20T13:07:46;8.20;94.60
31819;DHT22;18384;48.860;9.188;2023-12-20T13:10:13;8.10;95.00
31819;DHT22;18384;48.860;9.188;2023-12-20T13:12:42;7.80;95.20
31819;DHT22;18384;48.860;9.188;2023-12-20T13:15:09;7.80;94.70
31819;DHT22;18384;48.860;9.188;2023-12-20T13:17:35;9.00;95.30
31819;DHT22;18384;48.860;9.188;2023-12-20T13:20:01;7.70;95.40
31819;DHT22;18384;48.860;9.188;2023-12-20T13:22:27;7.80;95.30
31819;DHT22;18384;48.860;9.188;2023-12-20T13:24:53;7.90;95.70
31819;DHT22;18384;48.860;9.188;2023-12-20T13:27:19;8.00;95.30
31819;DHT22;18384;48.860;9.188;2023-12-20T13:29:45;8.00;95.00
31819;DHT22;18384;48.860;9.188;2023-12-20T13:32:11;8.00;95.20
31819;DHT22;18384;48.860;9.188;2023-12-20T13:34:38;8.10;94.70
31819;DHT22;18384;48.860;9.188;2023-12-20T13:37:04;8.10;95.20
31819;DHT22;18384;48.860;9.188;2023-12-20T13:39:30;8.10;94.90
31819;DHT22;18384;48.860;9.188;2023-12-20T13:41:56;8.20;95.40
31819;DHT22;18384;48.860;9.188;2023-12-20T13:44:23;8.20;95.20
31819;DHT22;18384;48.860;9.188;2023-12-20T13:46:50;8.20;95.10
31819;DHT22;18384;48.860;9.188;2023-12-20T13:49:16;8.20;94.90
31819;DHT22;18384;48.860;9.188;2023-12-20T13:51:42;8.10;94.80
31819;DHT22;18384;48.860;9.188;2023-12-20T13:54:08;8.00;94.90
31819;DHT22;18384;48.860;9.188;2023-12-20T13:56:36;8.00;95.70
31819;DHT22;18384;48.860;9.188;2023-12-20T13:59:02;8.00;95.80
31819;DHT22;18384;48.860;9.188;2023-12-20T14:01:28;7.80;95.70
31819;DHT22;18384;48.860;9.188;2023-12-20T14:03:55;7.80;96.20
31819;DHT22;18384;48.860;9.188;2023-12-20T14:06:21;7.80;96.20
31819;DHT22;18384;48.860;9.188;2023-12-20T14:08:47;7.70;96.20
31819;DHT22;18384;48.860;9.188;2023-12-20T14:11:13;7.70;96.50
31819;DHT22;18384;48.860;9.188;2023-12-20T14:13:41;7.70;96.30
31819;DHT22;18384;48.860;9.188;2023-12-20T14:16:07;7.70;96.50
31819;DHT22;18384;48.860;9.188;2023-12-20T14:18:33;7.60;96.70
31819;DHT22;18384;48.860;9.188;2023-12-20T14:20:59;7.70;96.50
31819;DHT22;18384;48.860;9.188;2023-12-20T14:23:25;7.60;96.80
31819;DHT22;18384;48.860;9.188;2023-12-20T14:25:51;7.50;97.50
31819;DHT22;18384;48.860;9.188;2023-12-20T14:28:18;7.50;97.00
31819;DHT22;18384;48.860;9.188;2023-12-20T14:30:44;7.50;97.20
31819;DHT22;18384;48.860;9.188;2023-12-20T14:33:10;7.50;97.50
31819;DHT22;18384;48.860;9.188;2023-12-20T14:35:37;7.50;98.00
31819;DHT22;18384;48.860;9.188;2023-12-20T14:38:03;7.50;97.70
31819;DHT22;18384;48.860;9.188;2023-12-20T14:40:29;7.50;98.00
31819;DHT22;18384;48.860;9.188;2023-12-20T14:42:55;7.40;97.70
31819;DHT22;18384;48.860;9.188;2023-12-20T14:45:22;7.50;98.00
31819;DHT22;18384;48.860;9.188;2023-12-20T14:47:48;7.50;97.70
31819;DHT22;18384;48.860;9.188;2023-12-20T14:50:14;7.40;97.50
31819;DHT22;18384;48.860;9.188;2023-12-20T14:52:44;7.40;97.60
31819;DHT22;18384;48.860;9.188;2023-12-20T14:55:11;7.30;97.80
31819;DHT22;18384;48.860;9.188;2023-12-20T14:57:37;7.30;98.10
31819;DHT22;18384;48.860;9.188;2023-12-20T15:00:05;7.30;98.20
31819;DHT22;18384;48.860;9.188;2023-12-20T15:02:31;7.30;98.50
31819;DHT22;18384;48.860;9.188;2023-12-20T15:04:57;7.30;98.20
31819;DHT22;18384;48.860;9.188;2023-12-20T15:07:23;7.30;98.80
31819;DHT22;18384;48.860;9.188;2023-12-20T15:09:50;7.30;98.80
31819;DHT22;18384;48.860;9.188;2023-12-20T15:12:16;7.30;99.20
31819;DHT22;18384;48.860;9.188;2023-12-20T15:14:42;7.30;99.00
31819;DHT22;18384;48.860;9.188;2023-12-20T15:17:08;7.30;99.30
31819;DHT22;18384;48.860;9.188;2023-12-20T15:19:34;7.30;99.40
31819;DHT22;18384;48.860;9.188;2023-12-20T15:22:00;7.30;99.30
31819;DHT22;18384;48.860;9.188;2023-12-20T15:24:26;7.20;99.40
31819;DHT22;18384;48.860;9.188;2023-12-20T15:27:01;7.20;99.30
31819;DHT22;18384;48.860;9.188;2023-12-20T15:29:29;7.30;99.30
31819;DHT22;18384;48.860;9.188;2023-12-20T15:31:56;7.20;99.50
31819;DHT22;18384;48.860;9.188;2023-12-20T15:34:22;7.10;99.90
31819;DHT22;18384;48.860;9.188;2023-12-20T15:36:48;7.20;99.50
31819;DHT22;18384;48.860;9.188;2023-12-20T15:39:14;7.10;98.80
31819;DHT22;18384;48.860;9.188;2023-12-20T15:41:40;7.20;99.20
31819;DHT22;18384;48.860;9.188;2023-12-20T15:44:07;7.30;99.40
31819;DHT22;18384;48.860;9.188;2023-12-20T15:46:33;7.30;98.70
31819;DHT22;18384;48.860;9.188;2023-12-20T15:48:59;7.20;98.80